createdAt,value
2018-05-29T00:01:34.138Z,14.60
2018-05-29T00:04:00.190Z,13.50
2018-05-29T00:06:26.452Z,14.20
2018-05-29T00:08:53.484Z,14.60
2018-05-29T00:11:19.766Z,14.60
2018-05-29T00:13:46.056Z,15.70
2018-05-29T00:16:12.289Z,14.50
2018-05-29T00:18:38.553Z,15.60
2018-05-29T00:21:05.068Z,16.50
2018-05-29T00:23:32.039Z,16.70
2018-05-29T00:25:58.252Z,16.70
2018-05-29T00:28:24.556Z,15.90
2018-05-29T00:30:51.568Z,15.70
2018-05-29T00:33:17.892Z,15.70
2018-05-29T00:35:44.116Z,16.10
2018-05-29T00:38:10.344Z,16.80
2018-05-29T00:40:37.352Z,16.50
2018-05-29T00:43:04.311Z,17.70
2018-05-29T00:45:30.564Z,17.60
2018-05-29T00:47:56.796Z,17.10
2018-05-29T00:50:23.052Z,17.50
2018-05-29T00:52:49.304Z,18.10
2018-05-29T00:55:27.913Z,18.20
2018-05-29T00:57:54.144Z,17.90
2018-05-29T01:00:20.421Z,18.30
2018-05-29T01:02:46.676Z,19.10
2018-05-29T01:05:12.948Z,20.30
2018-05-29T01:07:39.148Z,19.40
2018-05-29T01:10:05.420Z,18.20
2018-05-29T01:12:31.724Z,19.70
2018-05-29T01:14:57.953Z,19.70
2018-05-29T01:17:24.200Z,19.70
2018-05-29T01:19:50.468Z,19.60
2018-05-29T01:22:16.732Z,21.10
2018-05-29T01:24:42.975Z,20.70
2018-05-29T01:27:10.060Z,19.60
2018-05-29T01:29:36.376Z,19.60
2018-05-29T01:32:02.629Z,20.60
2018-05-29T01:34:28.931Z,20.30
2018-05-29T01:36:55.148Z,20.70
2018-05-29T01:39:21.409Z,19.70
2018-05-29T01:41:48.426Z,20.40
2018-05-29T01:44:15.336Z,20.20
2018-05-29T01:46:41.972Z,21.90
2018-05-29T01:49:08.953Z,22.10
2018-05-29T01:51:34.994Z,21.80
2018-05-29T01:54:01.952Z,21.70
2018-05-29T01:56:27.999Z,21.70
2018-05-29T01:58:54.224Z,21.60
2018-05-29T02:01:20.476Z,20.50
2018-05-29T02:03:46.736Z,21.40
2018-05-29T02:06:13.380Z,21.60
2018-05-29T02:08:39.608Z,21.30
2018-05-29T02:11:05.868Z,22.50
2018-05-29T02:13:33.194Z,21.20
2018-05-29T02:15:59.655Z,21.70
2018-05-29T02:18:25.912Z,23.80
2018-05-29T02:20:52.168Z,23.10
2018-05-29T02:23:18.776Z,23.30
2018-05-29T02:25:45.745Z,21.00
2018-05-29T02:28:12.052Z,21.20
2018-05-29T02:30:38.316Z,22.50
2018-05-29T02:33:04.573Z,22.40
2018-05-29T02:35:30.849Z,22.20
2018-05-29T02:37:57.113Z,22.10
2018-05-29T02:40:23.344Z,22.50
2018-05-29T02:42:49.607Z,22.90
2018-05-29T02:45:15.903Z,23.00
2018-05-29T02:47:42.172Z,21.70
2018-05-29T02:50:08.418Z,24.20
2018-05-29T02:52:35.400Z,23.90
2018-05-29T02:55:01.737Z,23.90
2018-05-29T02:57:28.308Z,24.70
2018-05-29T02:59:54.526Z,24.80
2018-05-29T03:02:20.796Z,23.90
2018-05-29T03:04:47.069Z,23.50
2018-05-29T03:07:14.052Z,26.70
2018-05-29T03:09:41.048Z,26.20
2018-05-29T03:12:07.917Z,26.30
2018-05-29T03:14:34.147Z,24.10
2018-05-29T03:17:00.405Z,24.70
2018-05-29T03:19:26.636Z,26.80
2018-05-29T03:21:52.923Z,28.30
2018-05-29T03:24:19.198Z,26.20
2018-05-29T03:26:45.453Z,26.20
2018-05-29T03:29:11.681Z,26.40
2018-05-29T03:31:37.933Z,25.70
2018-05-29T03:34:04.200Z,26.40
2018-05-29T03:36:32.817Z,28.80
2018-05-29T03:38:58.869Z,31.10
2018-05-29T03:41:25.657Z,30.90
2018-05-29T03:43:51.712Z,30.70
2018-05-29T03:46:17.932Z,30.40
2018-05-29T03:48:44.160Z,32.40
2018-05-29T03:51:10.423Z,30.60
2018-05-29T03:53:36.821Z,30.10
2018-05-29T03:56:03.777Z,29.30
2018-05-29T03:58:29.837Z,30.10
2018-05-29T04:00:56.091Z,28.70
2018-05-29T04:03:22.365Z,29.30
2018-05-29T04:05:49.384Z,29.90
2018-05-29T04:08:15.456Z,29.90
2018-05-29T04:10:43.706Z,28.70
2018-05-29T04:13:09.765Z,28.70
2018-05-29T04:15:36.573Z,28.00
2018-05-29T04:18:03.377Z,28.80
2018-05-29T04:20:29.510Z,28.70
2018-05-29T04:22:55.569Z,31.10
2018-05-29T04:25:22.454Z,28.80
2018-05-29T04:27:48.524Z,28.70
2018-05-29T04:30:14.600Z,28.80
2018-05-29T04:32:40.648Z,28.70
2018-05-29T04:35:07.597Z,30.80
2018-05-29T04:37:33.641Z,30.00
2018-05-29T04:39:59.689Z,30.10
2018-05-29T04:42:25.759Z,30.40
2018-05-29T04:44:51.824Z,29.50
2018-05-29T04:47:17.887Z,33.30
2018-05-29T04:49:43.988Z,32.40
2018-05-29T04:52:10.053Z,34.70
2018-05-29T04:54:37.335Z,31.30
2018-05-29T04:57:03.400Z,31.30
2018-05-29T04:59:29.440Z,28.90
2018-05-29T05:01:56.032Z,32.30
2018-05-29T05:04:22.108Z,31.00
2018-05-29T05:06:48.162Z,33.10
2018-05-29T05:09:14.593Z,30.80
2018-05-29T05:11:41.640Z,31.30
2018-05-29T05:14:07.881Z,31.60
2018-05-29T05:16:33.944Z,31.20
2018-05-29T05:19:00.000Z,34.00
2018-05-29T05:21:26.236Z,33.60
2018-05-29T05:23:53.241Z,30.90
2018-05-29T05:26:19.304Z,31.10
2018-05-29T05:28:45.383Z,31.70
2018-05-29T05:31:12.168Z,29.40
2018-05-29T05:33:38.412Z,29.40
2018-05-29T05:36:04.675Z,32.80
2018-05-29T05:38:30.902Z,31.60
2018-05-29T05:40:57.120Z,28.70
2018-05-29T05:43:24.075Z,28.90
2018-05-29T05:45:51.056Z,30.60
2018-05-29T05:48:17.097Z,30.60
2018-05-29T05:50:43.317Z,26.30
2018-05-29T05:53:09.559Z,24.20
2018-05-29T05:55:35.788Z,24.50
2018-05-29T05:58:02.245Z,24.40
2018-05-29T06:00:28.504Z,24.20
2018-05-29T06:02:54.752Z,22.40
2018-05-29T06:05:21.018Z,21.10
2018-05-29T06:07:47.228Z,22.40
2018-05-29T06:10:14.375Z,20.40
2018-05-29T06:12:40.621Z,20.50
2018-05-29T06:15:06.840Z,20.50
2018-05-29T06:17:33.341Z,18.30
2018-05-29T06:19:59.577Z,17.40
2018-05-29T06:22:25.799Z,17.70
2018-05-29T06:24:52.053Z,17.60
2018-05-29T06:27:18.288Z,16.50
2018-05-29T06:29:44.590Z,16.10
2018-05-29T06:32:10.827Z,16.00
2018-05-29T06:34:37.084Z,15.50
2018-05-29T06:37:03.333Z,15.10
2018-05-29T06:39:29.608Z,15.50
2018-05-29T06:41:56.616Z,14.10
2018-05-29T06:44:22.834Z,13.50
2018-05-29T06:46:49.244Z,12.60
2018-05-29T06:49:15.568Z,12.10
2018-05-29T06:51:41.808Z,13.10
2018-05-29T06:54:08.544Z,12.30
2018-05-29T06:56:34.794Z,10.10
2018-05-29T06:59:01.019Z,11.50
2018-05-29T07:01:27.304Z,10.00
2018-05-29T07:03:54.341Z,9.40
2018-05-29T07:06:20.556Z,9.50
2018-05-29T07:08:47.525Z,8.50
2018-05-29T07:11:13.596Z,8.50
2018-05-29T07:13:39.848Z,7.40
2018-05-29T07:16:06.100Z,7.60
2018-05-29T07:18:34.160Z,5.20
2018-05-29T07:21:00.282Z,5.20
2018-05-29T07:23:27.099Z,1.70
2018-05-29T07:25:53.168Z,1.80
2018-05-29T07:28:19.412Z,1.90
2018-05-29T07:30:45.676Z,1.00
2018-05-29T07:33:11.900Z,1.00
2018-05-29T07:35:38.148Z,1.00
2018-05-29T07:38:05.152Z,1.00
2018-05-29T07:40:32.252Z,1.00
2018-05-29T07:42:59.493Z,1.00
2018-05-29T07:45:25.560Z,1.00
2018-05-29T07:47:51.617Z,1.00
2018-05-29T07:50:18.405Z,1.00
2018-05-29T07:52:44.484Z,1.00
2018-05-29T07:55:11.292Z,1.00
2018-05-29T07:57:37.344Z,1.00
2018-05-29T08:00:03.401Z,1.00
2018-05-29T08:02:29.472Z,1.00
2018-05-29T08:04:55.525Z,1.00
2018-05-29T08:07:21.568Z,1.00
2018-05-29T08:09:47.820Z,1.00
2018-05-29T08:12:14.103Z,1.00
2018-05-29T08:14:42.893Z,1.00
2018-05-29T08:17:08.984Z,1.00
2018-05-29T08:19:35.039Z,1.00
2018-05-29T08:22:01.159Z,1.00
2018-05-29T08:24:27.275Z,1.00
2018-05-29T08:26:54.229Z,1.00
2018-05-29T08:29:21.077Z,1.00
2018-05-29T08:31:47.866Z,1.00
2018-05-29T08:34:15.355Z,1.00
2018-05-29T08:36:43.060Z,1.00
2018-05-29T08:39:09.179Z,1.00
2018-05-29T08:41:35.246Z,1.00
2018-05-29T08:44:01.371Z,1.00
2018-05-29T08:46:28.328Z,1.00
2018-05-29T08:48:54.361Z,1.00
2018-05-29T08:51:20.434Z,1.00
2018-05-29T08:53:49.829Z,1.00
2018-05-29T08:56:15.952Z,1.00
2018-05-29T08:58:42.050Z,1.00
2018-05-29T09:01:08.121Z,1.00
2018-05-29T09:03:34.201Z,1.00
2018-05-29T09:06:00.287Z,1.00
2018-05-29T09:08:26.385Z,1.00
2018-05-29T09:10:53.237Z,1.00
2018-05-29T09:13:19.307Z,1.00
2018-05-29T09:15:45.373Z,1.00
2018-05-29T09:18:11.468Z,1.00
2018-05-29T09:20:37.833Z,1.00
2018-05-29T09:23:03.914Z,1.00
2018-05-29T09:25:29.986Z,1.00
2018-05-29T09:27:56.052Z,1.00
2018-05-29T09:30:22.809Z,1.00
2018-05-29T09:32:48.958Z,1.00
2018-05-29T09:35:15.843Z,1.00
2018-05-29T09:37:42.799Z,1.00
2018-05-29T09:40:08.877Z,1.00
2018-05-29T09:42:34.938Z,1.00
2018-05-29T09:45:01.081Z,1.00
2018-05-29T09:47:27.169Z,1.00
2018-05-29T09:49:54.021Z,1.00
2018-05-29T09:52:20.949Z,1.00
2018-05-29T09:57:17.897Z,1.00
2018-05-29T09:59:43.978Z,1.00
2018-05-29T10:02:10.092Z,1.00
2018-05-29T10:04:36.167Z,1.00
2018-05-29T10:07:02.364Z,1.00
2018-05-29T10:09:28.499Z,1.00
2018-05-29T10:11:54.595Z,1.00
2018-05-29T10:14:20.676Z,1.00
2018-05-29T10:16:46.742Z,1.00
2018-05-29T10:19:15.112Z,1.00
2018-05-29T10:21:41.244Z,1.00
2018-05-29T10:24:07.321Z,1.00
2018-05-29T10:26:33.401Z,1.00
2018-05-29T10:28:59.584Z,1.00
2018-05-29T10:31:25.644Z,1.00
2018-05-29T10:33:51.721Z,1.00
2018-05-29T10:36:18.533Z,1.00
2018-05-29T10:38:46.928Z,1.00
2018-05-29T10:41:13.001Z,1.00
2018-05-29T10:43:39.053Z,1.00
2018-05-29T10:46:05.922Z,1.00
2018-05-29T10:48:31.948Z,1.00
2018-05-29T10:50:58.089Z,1.00
2018-05-29T10:53:24.217Z,1.00
2018-05-29T10:55:53.611Z,1.00
2018-05-29T10:58:19.689Z,1.00
2018-05-29T11:00:46.493Z,1.00
2018-05-29T11:03:12.581Z,1.00
2018-05-29T11:05:39.439Z,1.00
2018-05-29T11:08:05.534Z,1.00
2018-05-29T11:10:31.636Z,1.00
2018-05-29T11:13:00.151Z,1.00
2018-05-29T11:15:26.237Z,1.00
2018-05-29T11:17:52.305Z,1.00
2018-05-29T11:20:18.413Z,1.00
2018-05-29T11:22:45.250Z,1.00
2018-05-29T11:25:11.381Z,1.00
2018-05-29T11:27:37.477Z,1.00
2018-05-29T11:30:03.613Z,1.00
2018-05-29T11:32:29.697Z,1.00
2018-05-29T11:34:55.779Z,1.00
2018-05-29T11:37:26.135Z,1.00
2018-05-29T11:39:52.271Z,1.00
2018-05-29T11:42:18.550Z,1.00
2018-05-29T11:44:44.688Z,1.00
2018-05-29T11:47:10.790Z,1.00
2018-05-29T11:49:36.889Z,1.00
2018-05-29T11:52:03.812Z,1.00
2018-05-29T11:54:35.165Z,1.00
2018-05-29T11:57:01.252Z,1.00
2018-05-29T11:59:27.317Z,1.00
2018-05-29T12:01:53.393Z,1.00
2018-05-29T12:04:19.482Z,1.00
2018-05-29T12:06:46.298Z,1.00
2018-05-29T12:09:12.393Z,1.00
2018-05-29T12:11:38.489Z,1.00
2018-05-29T12:14:04.625Z,1.00
2018-05-29T12:16:30.701Z,1.00
2018-05-29T12:18:58.589Z,1.00
2018-05-29T12:21:24.648Z,1.00
2018-05-29T12:23:50.737Z,1.00
2018-05-29T12:26:17.568Z,1.00
2018-05-29T12:28:43.679Z,1.00
2018-05-29T12:31:09.769Z,1.00
2018-05-29T12:33:36.593Z,1.00
2018-05-29T12:36:02.674Z,1.00
2018-05-29T12:38:30.637Z,1.00
2018-05-29T12:40:56.717Z,1.00
2018-05-29T12:43:22.797Z,1.00
2018-05-29T12:45:49.057Z,1.00
2018-05-29T12:48:15.933Z,1.00
2018-05-29T12:50:42.753Z,1.00
2018-05-29T12:53:08.840Z,1.00
2018-05-29T12:55:34.934Z,1.00
2018-05-29T12:58:05.705Z,1.00
2018-05-29T13:00:32.539Z,1.00
2018-05-29T13:02:58.614Z,1.00
2018-05-29T13:05:24.767Z,1.00
2018-05-29T13:07:50.801Z,1.00
2018-05-29T13:10:16.860Z,1.00
2018-05-29T13:12:42.917Z,1.00
2018-05-29T13:15:13.414Z,1.00
2018-05-29T13:17:39.787Z,1.00
2018-05-29T13:20:05.894Z,1.00
2018-05-29T13:22:32.021Z,1.00
2018-05-29T13:24:58.052Z,1.00
2018-05-29T13:27:24.100Z,1.00
2018-05-29T13:29:50.921Z,1.00
2018-05-29T13:32:20.808Z,1.00
2018-05-29T13:34:46.865Z,1.00
2018-05-29T13:37:12.953Z,1.00
2018-05-29T13:39:39.778Z,1.00
2018-05-29T13:42:05.848Z,1.00
2018-05-29T13:44:32.677Z,1.00
2018-05-29T13:47:02.708Z,1.00
2018-05-29T13:49:28.781Z,1.00
2018-05-29T13:51:55.953Z,1.00
2018-05-29T13:54:22.136Z,1.00
2018-05-29T13:56:48.223Z,1.00
2018-05-29T13:59:15.057Z,1.00
2018-05-29T14:01:41.124Z,1.00
2018-05-29T14:04:07.950Z,1.00
2018-05-29T14:06:34.077Z,1.00
2018-05-29T14:09:00.237Z,1.00
2018-05-29T14:11:26.309Z,1.00
2018-05-29T14:13:52.404Z,1.00
2018-05-29T14:16:18.517Z,1.00
2018-05-29T14:18:44.592Z,1.00
2018-05-29T14:21:10.676Z,1.00
2018-05-29T14:23:36.760Z,1.00
2018-05-29T14:26:03.572Z,1.00
2018-05-29T14:28:29.649Z,1.00
2018-05-29T14:30:56.464Z,1.00
2018-05-29T14:33:22.572Z,1.00
2018-05-29T14:35:49.112Z,1.00
2018-05-29T14:38:15.180Z,1.00
2018-05-29T14:40:41.252Z,1.00
2018-05-29T14:43:07.373Z,1.00
2018-05-29T14:45:33.453Z,1.00
2018-05-29T14:47:59.537Z,1.00
2018-05-29T14:50:26.661Z,1.00
2018-05-29T14:52:52.872Z,1.00
2018-05-29T14:55:19.053Z,1.00
2018-05-29T14:57:45.132Z,1.00
2018-05-29T15:00:11.208Z,1.00
2018-05-29T15:02:37.284Z,1.00
2018-05-29T15:05:03.349Z,1.00
2018-05-29T15:07:30.157Z,1.00
2018-05-29T15:09:57.213Z,1.00
2018-05-29T15:12:23.260Z,1.00
2018-05-29T15:14:49.340Z,1.00
2018-05-29T15:17:15.441Z,1.10
2018-05-29T15:19:41.596Z,1.00
2018-05-29T15:22:07.736Z,1.00
2018-05-29T15:24:33.821Z,1.00
2018-05-29T15:27:01.147Z,1.00
2018-05-29T15:29:28.020Z,1.00
2018-05-29T15:31:54.816Z,1.00
2018-05-29T15:34:23.896Z,1.00
2018-05-29T15:36:49.994Z,1.00
2018-05-29T15:39:16.819Z,2.10
2018-05-29T15:41:42.952Z,1.50
2018-05-29T15:44:09.073Z,2.10
2018-05-29T15:46:35.158Z,2.60
2018-05-29T15:51:41.261Z,2.80
2018-05-29T15:54:08.995Z,3.50
2018-05-29T15:56:37.841Z,3.80
2018-05-29T15:59:03.906Z,4.70
2018-05-29T16:01:29.960Z,6.10
2018-05-29T16:03:56.165Z,7.20
2018-05-29T16:06:23.029Z,10.30
2018-05-29T16:08:49.130Z,10.30
2018-05-29T16:11:15.857Z,10.50
2018-05-29T16:13:44.007Z,12.10
2018-05-29T16:16:10.096Z,13.30
2018-05-29T16:18:36.259Z,13.50
2018-05-29T16:21:02.353Z,15.10
2018-05-29T16:23:28.441Z,15.10
2018-05-29T16:25:55.267Z,15.90
2018-05-29T16:28:21.349Z,15.80
2018-05-29T16:30:47.444Z,17.00
2018-05-29T16:33:13.533Z,16.10
2018-05-29T16:35:39.610Z,15.90
2018-05-29T16:38:05.682Z,16.80
2018-05-29T16:40:32.560Z,19.60
2018-05-29T16:42:58.597Z,19.50
2018-05-29T16:45:24.700Z,20.30
2018-05-29T16:47:51.586Z,21.60
2018-05-29T16:50:17.691Z,21.60
2018-05-29T16:52:43.797Z,21.80
2018-05-29T16:55:09.894Z,21.40
2018-05-29T16:57:38.016Z,21.50
2018-05-29T17:00:04.124Z,20.90
2018-05-29T17:02:30.199Z,20.20
2018-05-29T17:04:56.261Z,20.10
2018-05-29T17:07:23.211Z,18.90
2018-05-29T17:09:49.409Z,18.90
2018-05-29T17:12:15.472Z,18.70
2018-05-29T17:14:44.134Z,18.90
2018-05-29T17:17:10.192Z,18.50
2018-05-29T17:19:36.259Z,18.60
2018-05-29T17:22:03.093Z,16.50
2018-05-29T17:24:29.181Z,16.30
2018-05-29T17:26:56.015Z,15.90
2018-05-29T17:29:22.149Z,15.90
2018-05-29T17:31:50.568Z,16.90
2018-05-29T17:34:17.378Z,17.50
2018-05-29T17:36:47.089Z,17.40
2018-05-29T17:39:13.374Z,15.40
2018-05-29T17:41:40.500Z,15.30
2018-05-29T17:44:07.736Z,14.90
2018-05-29T17:46:37.173Z,14.90
2018-05-29T17:49:04.007Z,15.00
2018-05-29T17:51:30.138Z,16.20
2018-05-29T17:53:56.337Z,15.60
2018-05-29T17:56:22.510Z,15.10
2018-05-29T17:58:49.344Z,17.20
2018-05-29T18:01:18.674Z,17.00
2018-05-29T18:03:45.469Z,16.70
2018-05-29T18:06:11.561Z,16.80
2018-05-29T18:08:38.394Z,16.90
2018-05-29T18:11:04.928Z,17.00
2018-05-29T18:13:31.178Z,16.80
2018-05-29T18:15:57.266Z,17.80
2018-05-29T18:18:23.374Z,19.00
2018-05-29T18:20:52.860Z,18.30
2018-05-29T18:23:19.629Z,18.00
2018-05-29T18:25:45.747Z,19.10
2018-05-29T18:28:11.886Z,18.20
2018-05-29T18:30:37.999Z,18.60
2018-05-29T18:33:04.099Z,18.30
2018-05-29T18:35:30.318Z,19.70
2018-05-29T18:38:05.956Z,18.90
2018-05-29T18:40:32.304Z,20.40
2018-05-29T18:42:58.607Z,20.40
2018-05-29T18:45:24.915Z,20.20
2018-05-29T18:47:51.368Z,20.20
2018-05-29T18:50:18.230Z,19.20
2018-05-29T18:55:20.257Z,18.60
2018-05-29T18:57:47.941Z,18.60
2018-05-29T19:00:14.746Z,18.60
2018-05-29T19:02:41.736Z,17.90
2018-05-29T19:05:08.221Z,18.60
2018-05-29T19:07:37.553Z,18.10
2018-05-29T19:10:03.948Z,18.40
2018-05-29T19:12:30.338Z,18.80
2018-05-29T19:14:57.635Z,18.70
2018-05-29T19:17:23.983Z,18.60
2018-05-29T19:19:50.342Z,19.00
2018-05-29T19:22:18.638Z,19.00
2018-05-29T19:24:51.845Z,20.10
2018-05-29T19:27:18.188Z,20.10
2018-05-29T19:29:44.464Z,20.20
2018-05-29T19:32:10.768Z,20.00
2018-05-29T19:34:39.044Z,20.80
2018-05-29T19:37:05.368Z,21.20
2018-05-29T19:39:32.406Z,22.40
2018-05-29T19:42:03.198Z,21.80
2018-05-29T19:44:29.488Z,22.60
2018-05-29T19:46:55.917Z,22.60
2018-05-29T19:49:25.290Z,24.10
2018-05-29T19:51:56.646Z,23.60
2018-05-29T19:54:23.133Z,23.90
2018-05-29T19:56:49.441Z,25.60
2018-05-29T19:59:15.830Z,26.40
2018-05-29T20:01:42.937Z,26.70
2018-05-29T20:04:18.930Z,25.60
2018-05-29T20:06:46.009Z,26.10
2018-05-29T20:09:12.337Z,26.00
2018-05-29T20:11:39.332Z,27.30
2018-05-29T20:14:06.673Z,27.20
2018-05-29T20:16:33.675Z,28.30
2018-05-29T20:19:06.357Z,28.50
2018-05-29T20:21:36.424Z,28.40
2018-05-29T20:24:02.813Z,29.70
2018-05-29T20:26:29.308Z,31.10
2018-05-29T20:28:55.695Z,32.70
2018-05-29T20:31:26.047Z,32.40
2018-05-29T20:33:54.109Z,34.00
2018-05-29T20:36:22.437Z,34.00
2018-05-29T20:38:49.025Z,33.30
2018-05-29T20:41:22.010Z,35.70
2018-05-29T20:43:48.993Z,33.60
2018-05-29T20:46:15.236Z,35.00
2018-05-29T20:48:47.971Z,36.80
2018-05-29T20:51:14.276Z,37.50
2018-05-29T20:53:41.664Z,36.40
2018-05-29T20:56:07.921Z,38.30
2018-05-29T20:58:34.212Z,38.70
2018-05-29T21:01:02.717Z,38.20
2018-05-29T21:03:28.950Z,41.50
2018-05-29T21:05:55.985Z,42.90
2018-05-29T21:08:22.298Z,43.10
2018-05-29T21:10:49.581Z,43.90
2018-05-29T21:13:16.832Z,41.90
2018-05-29T21:15:43.061Z,45.60
2018-05-29T21:18:09.133Z,44.90
2018-05-29T21:20:35.976Z,44.50
2018-05-29T21:23:02.049Z,44.40
2018-05-29T21:25:29.080Z,43.40
2018-05-29T21:27:55.158Z,43.40
2018-05-29T21:30:21.530Z,44.70
2018-05-29T21:32:47.846Z,45.90
2018-05-29T21:35:14.212Z,46.70
2018-05-29T21:37:41.234Z,48.20
2018-05-29T21:40:11.704Z,48.10
2018-05-29T21:42:37.802Z,49.20
2018-05-29T21:45:05.604Z,48.30
2018-05-29T21:47:31.673Z,48.30
2018-05-29T21:49:57.784Z,48.20
2018-05-29T21:52:23.864Z,48.90
2018-05-29T21:54:49.965Z,48.40
2018-05-29T21:57:16.045Z,50.40
2018-05-29T21:59:42.865Z,48.60
2018-05-29T22:02:08.941Z,48.60
2018-05-29T22:04:35.745Z,50.10
2018-05-29T22:07:01.833Z,50.40
2018-05-29T22:09:28.673Z,49.00
2018-05-29T22:11:54.793Z,48.80
2018-05-29T22:14:20.908Z,48.30
2018-05-29T22:16:46.993Z,47.00
2018-05-29T22:19:13.864Z,46.50
2018-05-29T22:21:39.938Z,46.60
2018-05-29T22:24:06.167Z,46.40
2018-05-29T22:26:33.734Z,46.80
2018-05-29T22:28:59.825Z,44.90
2018-05-29T22:31:25.888Z,45.30
2018-05-29T22:33:54.113Z,44.30
2018-05-29T22:36:20.174Z,44.50
2018-05-29T22:38:47.013Z,43.60
2018-05-29T22:41:13.098Z,44.10
2018-05-29T22:43:39.172Z,43.10
2018-05-29T22:46:06.232Z,44.00
2018-05-29T22:48:32.289Z,42.70
2018-05-29T22:50:58.365Z,44.40
2018-05-29T22:53:24.440Z,42.50
2018-05-29T22:55:50.578Z,41.50
2018-05-29T22:58:17.377Z,42.60
2018-05-29T23:00:46.184Z,41.40
2018-05-29T23:03:12.995Z,41.40
2018-05-29T23:05:39.074Z,41.30
2018-05-29T23:08:05.891Z,39.70
2018-05-29T23:10:31.956Z,40.00
2018-05-29T23:12:58.024Z,40.60
2018-05-29T23:15:26.016Z,40.20
2018-05-29T23:20:25.008Z,38.70
2018-05-29T23:22:51.897Z,40.40
2018-05-29T23:25:18.062Z,40.40
2018-05-29T23:27:44.172Z,41.30
2018-05-29T23:30:10.240Z,40.70
2018-05-29T23:32:36.344Z,40.90
2018-05-29T23:35:02.369Z,40.70
2018-05-29T23:37:28.430Z,39.80
2018-05-29T23:39:55.327Z,42.80
2018-05-29T23:42:21.402Z,42.70
2018-05-29T23:44:48.892Z,41.20
2018-05-29T23:47:15.374Z,42.50
2018-05-29T23:49:41.464Z,41.20
2018-05-29T23:52:08.305Z,41.20
2018-05-29T23:54:34.364Z,42.00
2018-05-29T23:57:00.424Z,44.50
2018-05-29T23:59:26.481Z,43.50
